Time;durP1;ratioP1;P1;durP2;ratioP2;P2;SDS_P1;SDS_P2;PMS_P1;PMS_P2;Temp;Humidity;BMP_temperature;BMP_pressure;BME280_temperature;BME280_humidity;BME280_pressure;Samples;Min_cycle;Max_cycle;Signal;HPM_P1;HPM_P2
2023/04/15 00:01:00;;;;;;;70.52;60.95;;;31.00;80.00;;;;;;1831488;77;21167;-81
2023/04/15 00:03:33;;;;;;;73.33;65.00;;;31.00;80.00;;;;;;1837614;77;21225;-80
2023/04/15 00:06:04;;;;;;;70.15;62.50;;;31.10;80.50;;;;;;1821079;77;21157;-81
2023/04/15 00:08:35;;;;;;;72.25;64.53;;;31.10;80.50;;;;;;1831842;77;21146;-81
2023/04/15 00:11:07;;;;;;;70.67;62.88;;;31.10;81.00;;;;;;1816101;78;21220;-81
2023/04/15 00:13:38;;;;;;;70.15;62.58;;;31.10;81.40;;;;;;1826060;77;21178;-82
2023/04/15 00:16:10;;;;;;;71.77;64.05;;;31.10;81.70;;;;;;1781758;79;21708;-81
2023/04/15 00:18:41;;;;;;;72.00;64.27;;;31.10;81.30;;;;;;1776093;79;21745;-81
2023/04/15 00:21:13;;;;;;;68.37;61.18;;;31.10;81.60;;;;;;1823073;77;21134;-81
2023/04/15 00:23:44;;;;;;;72.72;64.90;;;31.20;81.30;;;;;;1819497;77;21535;-82
2023/04/15 00:26:15;;;;;;;70.75;63.20;;;31.20;81.30;;;;;;1818975;78;21186;-82
2023/04/15 00:28:46;;;;;;;72.58;63.40;;;31.10;81.40;;;;;;1829703;77;21160;-81
2023/04/15 00:31:18;;;;;;;68.83;61.37;;;31.20;81.50;;;;;;1820511;77;21068;-80
2023/04/15 00:33:49;;;;;;;74.62;63.87;;;31.20;81.50;;;;;;1828957;77;21656;-74
2023/04/15 00:36:20;;;;;;;72.10;64.35;;;31.30;81.80;;;;;;1819680;77;21225;-74
2023/04/15 00:38:52;;;;;;;70.85;63.23;;;31.30;81.60;;;;;;1818553;78;21599;-73
2023/04/15 00:41:23;;;;;;;73.97;65.87;;;31.40;82.00;;;;;;1828214;77;21090;-75
2023/04/15 00:43:54;;;;;;;79.40;69.65;;;31.40;82.10;;;;;;1836021;77;21606;-75
2023/04/15 00:46:27;;;;;;;76.45;68.35;;;31.40;82.30;;;;;;1821325;77;21169;-74
2023/04/15 00:48:58;;;;;;;74.85;66.72;;;31.40;82.50;;;;;;1820994;77;21098;-76
2023/04/15 00:51:32;;;;;;;73.47;65.52;;;31.40;82.40;;;;;;1828247;77;21261;-74
2023/04/15 00:54:05;;;;;;;74.53;66.00;;;31.40;83.20;;;;;;1823489;78;21480;-75
2023/04/15 00:56:40;;;;;;;73.10;65.12;;;31.40;82.50;;;;;;1805128;78;21163;-73
2023/04/15 00:59:11;;;;;;;78.40;66.55;;;31.40;82.60;;;;;;1811784;78;21171;-73
2023/04/15 01:01:48;;;;;;;74.75;65.92;;;31.50;82.70;;;;;;1817034;77;21162;-73
2023/04/15 01:04:20;;;;;;;71.45;64.00;;;31.60;82.70;;;;;;1828220;78;21630;-73
2023/04/15 01:06:51;;;;;;;74.58;65.85;;;31.60;82.70;;;;;;1829139;77;21132;-74
2023/04/15 01:09:22;;;;;;;71.15;64.12;;;31.60;82.40;;;;;;1845785;77;21134;-74
2023/04/15 01:11:54;;;;;;;73.90;66.02;;;31.70;82.50;;;;;;1836446;77;21118;-74
2023/04/15 01:14:25;;;;;;;75.85;66.77;;;31.70;82.30;;;;;;1825606;77;21690;-74
2023/04/15 01:16:57;;;;;;;73.45;65.97;;;31.70;82.30;;;;;;1822941;77;21128;-73
2023/04/15 01:19:28;;;;;;;73.97;66.00;;;31.60;82.30;;;;;;1832176;77;21560;-75
2023/04/15 01:22:00;;;;;;;71.80;64.12;;;31.70;82.40;;;;;;1838465;77;21211;-76
2023/04/15 01:24:33;;;;;;;75.03;66.77;;;31.70;82.50;;;;;;1828276;78;21081;-73
2023/04/15 01:27:05;;;;;;;78.20;66.35;;;31.80;82.30;;;;;;1826968;78;21090;-74
2023/04/15 01:29:38;;;;;;;74.55;65.67;;;31.80;82.00;;;;;;1826519;77;21627;-74
2023/04/15 01:32:10;;;;;;;73.52;65.72;;;31.80;82.00;;;;;;1827774;78;21598;-73
2023/04/15 01:34:41;;;;;;;73.15;65.35;;;31.90;81.50;;;;;;1816489;77;21232;-74
2023/04/15 01:37:12;;;;;;;72.10;64.32;;;31.90;81.50;;;;;;1830723;77;21127;-74
2023/04/15 01:39:44;;;;;;;70.08;62.60;;;32.00;81.20;;;;;;1837251;77;21084;-74
2023/04/15 01:42:15;;;;;;;72.50;64.97;;;32.10;81.00;;;;;;1833559;77;21220;-74
2023/04/15 01:44:46;;;;;;;72.55;64.62;;;32.20;80.60;;;;;;1835327;77;21576;-74
2023/04/15 01:47:17;;;;;;;73.85;65.50;;;32.30;80.40;;;;;;1840702;77;21140;-72
2023/04/15 01:49:49;;;;;;;71.97;64.12;;;32.40;80.20;;;;;;1832064;77;21643;-74
2023/04/15 01:52:20;;;;;;;71.60;62.33;;;32.40;80.20;;;;;;1812256;78;21134;-74
2023/04/15 01:54:51;;;;;;;71.05;63.50;;;32.50;79.50;;;;;;1825668;78;21158;-73
2023/04/15 01:57:22;;;;;;;71.85;64.17;;;32.60;79.30;;;;;;1814930;78;21123;-73
2023/04/15 01:59:54;;;;;;;70.32;62.95;;;32.70;78.80;;;;;;1829301;78;21124;-73
2023/04/15 02:02:26;;;;;;;70.62;63.20;;;32.70;78.80;;;;;;1821918;78;21179;-74
2023/04/15 02:04:57;;;;;;;68.78;61.50;;;32.80;78.60;;;;;;1819321;78;21114;-73
2023/04/15 02:07:31;;;;;;;70.52;62.93;;;32.80;77.90;;;;;;1837543;77;21616;-73
2023/04/15 02:10:01;;;;;;;71.77;64.35;;;32.90;77.80;;;;;;1828450;77;21636;-74
2023/04/15 02:12:32;;;;;;;68.15;60.78;;;33.00;77.70;;;;;;1827443;78;21183;-74
2023/04/15 02:15:03;;;;;;;68.20;60.92;;;33.00;77.40;;;;;;1824097;78;21258;-73
2023/04/15 02:17:38;;;;;;;69.12;61.83;;;33.10;77.50;;;;;;1836939;77;21820;-73
2023/04/15 02:20:10;;;;;;;67.47;60.45;;;33.10;76.50;;;;;;1825016;77;21133;-73
2023/04/15 02:22:41;;;;;;;70.22;62.62;;;33.20;76.40;;;;;;1829665;77;21219;-74
2023/04/15 02:25:13;;;;;;;68.42;60.90;;;33.30;76.30;;;;;;1829627;77;21135;-74
2023/04/15 02:27:44;;;;;;;66.17;58.75;;;33.50;74.80;;;;;;1828331;77;21212;-74
2023/04/15 02:30:15;;;;;;;64.92;58.25;;;33.60;74.20;;;;;;1829906;77;21180;-74
2023/04/15 02:32:47;;;;;;;65.80;59.03;;;33.70;74.10;;;;;;1830279;77;21687;-73
2023/04/15 02:35:18;;;;;;;65.47;58.58;;;33.80;73.70;;;;;;1834353;77;21167;-73
2023/04/15 02:37:50;;;;;;;66.30;59.45;;;33.90;73.50;;;;;;1831701;77;21521;-74
2023/04/15 02:40:21;;;;;;;67.30;60.23;;;34.00;72.90;;;;;;1834776;77;21086;-74
2023/04/15 02:42:52;;;;;;;69.75;59.98;;;34.10;72.50;;;;;;1827547;77;21064;-73
2023/04/15 02:45:26;;;;;;;67.67;60.58;;;34.20;72.10;;;;;;1848553;77;21658;-74
2023/04/15 02:47:56;;;;;;;67.95;60.60;;;34.20;72.20;;;;;;1831155;77;21207;-74
2023/04/15 02:50:27;;;;;;;66.22;59.25;;;34.30;71.90;;;;;;1831387;77;21136;-76
2023/04/15 02:53:00;;;;;;;64.37;58.00;;;34.40;71.70;;;;;;1827586;77;21721;-74
2023/04/15 02:55:31;;;;;;;64.35;57.53;;;34.50;71.20;;;;;;1821600;77;21200;-74
2023/04/15 02:58:03;;;;;;;66.60;59.42;;;34.60;70.90;;;;;;1838097;77;21623;-75
2023/04/15 03:00:34;;;;;;;65.78;58.98;;;34.70;70.60;;;;;;1827732;77;21624;-74
2023/04/15 03:03:06;;;;;;;67.25;60.58;;;34.80;69.30;;;;;;1831971;77;21152;-74
2023/04/15 03:05:38;;;;;;;61.98;55.38;;;34.80;69.40;;;;;;1832336;77;21577;-75
2023/04/15 03:08:29;;;;;;;65.78;57.55;;;34.90;69.40;;;;;;1826394;77;21265;-75
2023/04/15 03:11:01;;;;;;;66.40;59.73;;;35.10;69.50;;;;;;1807556;79;21139;-74
2023/04/15 03:13:32;;;;;;;65.52;58.38;;;35.10;69.00;;;;;;1810024;79;21174;-74
2023/04/15 03:16:03;;;;;;;68.15;61.13;;;35.20;68.60;;;;;;1808404;79;21640;-74
2023/04/15 03:18:34;;;;;;;78.42;61.33;;;35.30;68.70;;;;;;1805865;78;21176;-74
2023/04/15 03:21:06;;;;;;;68.25;60.70;;;35.30;68.70;;;;;;1809769;79;21786;-74
2023/04/15 03:23:37;;;;;;;71.35;61.13;;;35.40;67.70;;;;;;1810495;78;21189;-74
2023/04/15 03:26:09;;;;;;;66.50;59.55;;;35.40;67.80;;;;;;1800784;79;21253;-74
2023/04/15 03:28:40;;;;;;;65.52;58.02;;;35.40;68.00;;;;;;1797235;78;21623;-74
2023/04/15 03:31:11;;;;;;;61.50;55.05;;;35.40;66.90;;;;;;1803737;78;21104;-74
2023/04/15 03:33:42;;;;;;;66.95;58.00;;;35.50;66.90;;;;;;1779848;80;21190;-74
2023/04/15 03:36:14;;;;;;;63.87;57.08;;;35.60;66.20;;;;;;1752290;81;21469;-75
2023/04/15 03:38:46;;;;;;;60.80;54.48;;;35.70;64.70;;;;;;1780936;80;21083;-74
2023/04/15 03:41:17;;;;;;;60.65;54.27;;;35.70;64.30;;;;;;1758589;81;21240;-74
2023/04/15 03:43:50;;;;;;;63.40;56.88;;;35.70;64.60;;;;;;1804899;79;21132;-76
2023/04/15 03:46:21;;;;;;;60.08;53.48;;;35.70;63.80;;;;;;1807838;79;21151;-74
2023/04/15 03:48:52;;;;;;;60.17;53.65;;;35.70;63.90;;;;;;1813215;78;21667;-74
2023/04/15 03:51:23;;;;;;;61.42;54.48;;;35.80;64.50;;;;;;1802723;78;21130;-74
2023/04/15 03:53:54;;;;;;;59.00;52.73;;;35.90;64.60;;;;;;1810558;78;21592;-75
2023/04/15 03:56:26;;;;;;;61.95;55.25;;;35.90;64.50;;;;;;1795799;79;21114;-74
2023/04/15 03:58:57;;;;;;;63.52;56.33;;;36.00;63.70;;;;;;1797543;78;21112;-85
2023/04/15 04:01:29;;;;;;;60.45;54.20;;;36.20;63.50;;;;;;1813641;78;21176;-86
2023/04/15 04:04:00;;;;;;;60.83;54.53;;;36.20;62.70;;;;;;1804013;78;21111;-87
2023/04/15 04:06:31;;;;;;;61.73;53.45;;;36.20;61.80;;;;;;1803425;79;21199;-86
2023/04/15 04:09:02;;;;;;;61.05;54.35;;;36.30;61.90;;;;;;1812085;79;21124;-85
2023/04/15 04:11:34;;;;;;;60.83;54.23;;;36.40;61.20;;;;;;1815046;79;21652;-87
2023/04/15 04:14:05;;;;;;;62.08;55.55;;;36.40;61.20;;;;;;1798035;79;21145;-87
2023/04/15 04:16:36;;;;;;;58.78;52.67;;;36.40;61.30;;;;;;1801984;79;21663;-86
2023/04/15 04:19:07;;;;;;;61.30;55.00;;;36.50;61.80;;;;;;1791361;79;21313;-84
2023/04/15 04:21:38;;;;;;;58.48;52.35;;;36.60;61.40;;;;;;1806293;79;21625;-84
2023/04/15 04:24:09;;;;;;;68.62;58.98;;;36.70;61.10;;;;;;1816586;79;21089;-85
2023/04/15 04:26:40;;;;;;;57.25;51.35;;;36.70;61.20;;;;;;1786533;79;21684;-83
2023/04/15 04:29:12;;;;;;;56.77;50.52;;;36.80;60.60;;;;;;1794899;79;21152;-83
2023/04/15 04:31:43;;;;;;;59.33;52.93;;;36.90;59.80;;;;;;1815859;79;21527;-84
2023/04/15 04:34:14;;;;;;;58.08;52.00;;;36.90;59.00;;;;;;1801626;79;21168;-83
2023/04/15 04:36:45;;;;;;;59.85;53.55;;;37.00;58.40;;;;;;1787530;79;21565;-87
2023/04/15 04:39:16;;;;;;;57.35;51.53;;;37.00;58.80;;;;;;1796136;79;21152;-83
2023/04/15 04:41:47;;;;;;;59.03;52.43;;;37.00;58.90;;;;;;1810714;79;21642;-82
2023/04/15 04:44:18;;;;;;;57.65;51.75;;;37.10;58.30;;;;;;1797337;79;21200;-83
2023/04/15 04:46:49;;;;;;;59.38;53.33;;;37.10;58.70;;;;;;1808405;79;21226;-84
2023/04/15 04:49:20;;;;;;;59.65;53.25;;;37.20;58.40;;;;;;1803803;79;21089;-83
2023/04/15 04:51:52;;;;;;;61.35;54.85;;;37.30;57.50;;;;;;1793188;79;21936;-84
2023/04/15 04:54:23;;;;;;;57.67;51.50;;;37.30;56.80;;;;;;1815258;79;21156;-83
2023/04/15 04:56:54;;;;;;;60.28;53.70;;;37.40;56.10;;;;;;1812125;79;21525;-84
2023/04/15 04:59:25;;;;;;;55.92;49.98;;;37.40;57.20;;;;;;1795852;79;21184;-84
2023/04/15 05:01:56;;;;;;;54.77;49.03;;;37.30;55.80;;;;;;1807562;79;21128;-85
2023/04/15 05:04:27;;;;;;;54.73;49.18;;;37.30;55.70;;;;;;1813525;79;21136;-85
2023/04/15 05:06:59;;;;;;;55.67;48.92;;;37.30;55.70;;;;;;1801651;79;21131;-85
2023/04/15 05:09:31;;;;;;;53.95;48.40;;;37.40;55.40;;;;;;1803673;79;21172;-84
2023/04/15 05:12:02;;;;;;;54.15;48.35;;;37.40;55.70;;;;;;1808158;79;21105;-82
2023/04/15 05:14:33;;;;;;;55.48;49.83;;;37.40;55.60;;;;;;1815081;79;21588;-84
2023/04/15 05:17:04;;;;;;;55.25;49.58;;;37.50;56.10;;;;;;1808670;79;21226;-85
2023/04/15 05:19:36;;;;;;;58.38;50.65;;;37.60;55.70;;;;;;1811877;78;21529;-85
2023/04/15 05:22:07;;;;;;;55.67;49.83;;;37.70;54.90;;;;;;1805315;79;21202;-84
2023/04/15 05:24:38;;;;;;;57.98;49.73;;;37.70;54.50;;;;;;1812298;78;21186;-84
2023/04/15 05:27:10;;;;;;;55.50;49.77;;;37.80;54.80;;;;;;1807527;79;21173;-85
2023/04/15 05:29:42;;;;;;;56.35;50.55;;;37.80;54.30;;;;;;1813866;79;21144;-86
2023/04/15 05:32:13;;;;;;;58.17;51.30;;;37.90;54.40;;;;;;1817148;79;21237;-86
2023/04/15 05:34:44;;;;;;;53.58;48.20;;;37.90;54.60;;;;;;1777510;81;21155;-87
2023/04/15 05:37:15;;;;;;;51.98;46.42;;;38.00;53.80;;;;;;1794664;79;21105;-84
2023/04/15 05:39:47;;;;;;;53.10;47.75;;;38.00;54.40;;;;;;1817287;79;21137;-84
2023/04/15 05:42:18;;;;;;;53.50;47.93;;;38.10;54.00;;;;;;1782685;80;21572;-85
2023/04/15 05:44:50;;;;;;;54.25;48.50;;;38.10;53.70;;;;;;1782494;80;21144;-85
2023/04/15 05:47:21;;;;;;;53.73;47.90;;;38.10;53.40;;;;;;1748046;82;21219;-85
2023/04/15 05:49:52;;;;;;;51.98;46.95;;;38.20;53.40;;;;;;1817849;79;21249;-85
2023/04/15 05:52:23;;;;;;;52.93;47.40;;;38.30;53.30;;;;;;1817605;79;21217;-85
2023/04/15 05:54:54;;;;;;;52.60;47.30;;;38.30;53.10;;;;;;1818660;79;21674;-87
2023/04/15 05:57:25;;;;;;;57.15;51.50;;;38.30;53.30;;;;;;1817909;79;21202;-86
2023/04/15 05:59:56;;;;;;;57.17;51.18;;;38.40;53.00;;;;;;1818755;79;21159;-87
2023/04/15 06:02:27;;;;;;;56.00;50.00;;;38.40;52.40;;;;;;1817518;79;21140;-85
2023/04/15 06:04:59;;;;;;;54.05;48.45;;;38.30;52.80;;;;;;1817879;78;21612;-85
2023/04/15 06:07:31;;;;;;;58.73;50.83;;;38.30;52.80;;;;;;1818086;79;21186;-84
2023/04/15 06:10:02;;;;;;;56.68;50.52;;;38.30;56.00;;;;;;1816398;78;21178;-83
2023/04/15 06:12:34;;;;;;;57.08;51.30;;;38.30;56.30;;;;;;1816814;78;21189;-85
2023/04/15 06:15:05;;;;;;;56.40;50.67;;;38.30;56.60;;;;;;1816908;79;21125;-84
2023/04/15 06:17:36;;;;;;;55.28;49.67;;;38.30;56.60;;;;;;1818452;78;21156;-85
2023/04/15 06:20:09;;;;;;;52.33;46.70;;;38.20;56.90;;;;;;1818841;79;21163;-84
2023/04/15 06:22:40;;;;;;;54.05;48.87;;;38.20;54.60;;;;;;1816136;78;21101;-83
2023/04/15 06:25:11;;;;;;;50.45;45.35;;;38.20;55.60;;;;;;1813710;79;21089;-83
2023/04/15 06:27:42;;;;;;;53.98;48.45;;;38.30;53.00;;;;;;1798028;79;21230;-83
2023/04/15 06:30:13;;;;;;;55.58;49.80;;;38.30;54.90;;;;;;1797600;79;21141;-85
2023/04/15 06:32:48;;;;;;;56.80;50.92;;;38.30;56.00;;;;;;1812389;79;21149;-85
2023/04/15 06:35:19;;;;;;;56.50;50.88;;;38.30;56.30;;;;;;1818246;79;21144;-85
2023/04/15 06:37:50;;;;;;;55.30;49.53;;;38.30;56.20;;;;;;1817415;79;21210;-86
2023/04/15 06:40:21;;;;;;;55.00;49.18;;;38.30;56.40;;;;;;1809954;79;21157;-86
2023/04/15 06:42:52;;;;;;;57.65;51.15;;;38.30;56.50;;;;;;1812013;79;21233;-85
2023/04/15 06:45:23;;;;;;;55.17;49.53;;;38.30;56.50;;;;;;1818301;79;21132;-87
2023/04/15 06:47:54;;;;;;;54.08;48.30;;;38.20;56.20;;;;;;1835866;77;21216;-88
2023/04/15 06:50:26;;;;;;;53.92;48.70;;;38.20;55.60;;;;;;1849232;77;21624;-86
2023/04/15 06:52:57;;;;;;;54.67;49.18;;;38.20;56.30;;;;;;1823089;77;21190;-85
2023/04/15 06:55:28;;;;;;;54.33;47.95;;;38.20;56.40;;;;;;1817171;79;21092;-86
2023/04/15 06:57:59;;;;;;;53.60;48.17;;;38.20;56.80;;;;;;1818571;79;21101;-85
2023/04/15 07:00:32;;;;;;;53.05;47.50;;;38.20;57.10;;;;;;1818490;79;21132;-86
2023/04/15 07:03:03;;;;;;;53.90;48.28;;;38.30;56.80;;;;;;1818197;79;21183;-87
2023/04/15 07:05:34;;;;;;;54.75;49.00;;;38.20;56.50;;;;;;1816320;79;21499;-85
2023/04/15 07:08:06;;;;;;;54.10;48.45;;;38.20;56.00;;;;;;1816298;79;21138;-86
2023/04/15 07:10:37;;;;;;;54.90;49.03;;;38.20;56.00;;;;;;1816327;79;21122;-86
2023/04/15 07:13:08;;;;;;;54.55;48.95;;;38.20;56.10;;;;;;1816286;79;21170;-87
2023/04/15 07:15:40;;;;;;;54.25;48.58;;;38.20;55.30;;;;;;1816514;78;21091;-86
2023/04/15 07:18:11;;;;;;;52.55;47.50;;;38.20;55.40;;;;;;1816951;79;21144;-86
2023/04/15 07:20:42;;;;;;;53.83;48.15;;;38.20;55.60;;;;;;1818737;79;21140;-87
2023/04/15 07:23:15;;;;;;;52.33;47.03;;;38.20;56.00;;;;;;1811410;78;21163;-87
2023/04/15 07:25:46;;;;;;;52.75;47.33;;;38.20;55.70;;;;;;1797867;79;21117;-87
2023/04/15 07:28:17;;;;;;;52.78;47.48;;;38.20;55.60;;;;;;1817891;79;21061;-86
2023/04/15 07:30:48;;;;;;;51.48;46.35;;;38.20;55.50;;;;;;1815968;79;21146;-85
2023/04/15 07:33:20;;;;;;;51.90;46.40;;;38.20;54.60;;;;;;1788352;79;21654;-85
2023/04/15 07:35:52;;;;;;;50.65;45.52;;;38.30;54.80;;;;;;1798548;79;21128;-85
2023/04/15 07:38:23;;;;;;;48.63;44.10;;;38.30;53.90;;;;;;1812494;78;21129;-85
2023/04/15 07:40:54;;;;;;;47.65;42.75;;;38.30;52.80;;;;;;1810057;79;21266;-85
2023/04/15 07:43:25;;;;;;;47.05;42.27;;;38.40;52.40;;;;;;1817625;79;21156;-86
2023/04/15 07:45:56;;;;;;;47.62;42.80;;;38.40;51.90;;;;;;1818472;78;21081;-85
2023/04/15 07:48:27;;;;;;;47.83;43.02;;;38.40;51.70;;;;;;1817999;79;21201;-85
2023/04/15 07:50:59;;;;;;;45.73;41.42;;;38.40;51.40;;;;;;1814650;78;21230;-87
2023/04/15 07:53:31;;;;;;;47.20;42.48;;;38.40;50.70;;;;;;1820573;79;21582;-86
2023/04/15 07:56:02;;;;;;;49.42;44.27;;;38.40;51.10;;;;;;1824327;79;21183;-84
2023/04/15 07:58:33;;;;;;;48.70;43.73;;;38.50;52.00;;;;;;1824574;79;21093;-85
2023/04/15 08:01:06;;;;;;;48.20;43.50;;;38.40;58.30;;;;;;1822724;79;21144;-86
2023/04/15 08:03:37;;;;;;;46.35;41.73;;;38.50;58.80;;;;;;1819724;78;21125;-86
2023/04/15 08:06:08;;;;;;;48.42;43.48;;;38.50;59.20;;;;;;1818795;79;21163;-86
2023/04/15 08:08:39;;;;;;;46.70;42.23;;;38.50;52.80;;;;;;1800796;79;21154;-85
2023/04/15 08:11:11;;;;;;;47.05;42.00;;;38.40;52.50;;;;;;1817839;78;21612;-84
2023/04/15 08:13:42;;;;;;;48.48;43.63;;;38.40;52.30;;;;;;1817357;79;21159;-85
2023/04/15 08:16:24;;;;;;;47.38;42.53;;;38.40;53.80;;;;;;1814593;79;21217;-84
2023/04/15 08:18:57;;;;;;;47.73;42.70;;;38.20;51.10;;;;;;1816004;77;21573;-75
2023/04/15 08:21:29;;;;;;;47.13;42.50;;;38.20;51.30;;;;;;1837018;77;21061;-76
2023/04/15 08:24:00;;;;;;;45.92;41.40;;;38.10;51.80;;;;;;1817934;79;21183;-74
2023/04/15 08:26:32;;;;;;;47.48;42.50;;;38.00;51.40;;;;;;1817316;78;21270;-74
2023/04/15 08:29:03;;;;;;;46.42;41.77;;;37.80;51.10;;;;;;1782960;79;21644;-75
2023/04/15 08:31:34;;;;;;;46.20;41.63;;;37.80;51.10;;;;;;1813275;79;21544;-74
2023/04/15 08:34:06;;;;;;;48.15;42.83;;;37.80;51.40;;;;;;1815940;79;21240;-74
2023/04/15 08:36:37;;;;;;;47.23;41.88;;;37.70;51.40;;;;;;1815811;79;21822;-74
2023/04/15 08:39:09;;;;;;;50.05;44.60;;;37.70;51.10;;;;;;1815895;79;21609;-75
2023/04/15 08:41:42;;;;;;;47.53;42.85;;;37.80;51.40;;;;;;1782072;80;21193;-75
2023/04/15 08:44:15;;;;;;;48.13;43.35;;;37.70;51.60;;;;;;1755631;81;21194;-74
2023/04/15 08:46:46;;;;;;;49.67;44.77;;;37.80;51.70;;;;;;1739728;82;21230;-73
2023/04/15 08:49:19;;;;;;;51.00;46.02;;;37.80;51.80;;;;;;1740088;82;21227;-74
2023/04/15 08:52:09;;;;;;;49.67;44.60;;;37.80;52.20;;;;;;1740155;82;21241;-74
2023/04/15 08:54:41;;;;;;;48.42;43.25;;;37.80;51.80;;;;;;1798258;80;21182;-72
2023/04/15 08:57:13;;;;;;;46.75;42.05;;;37.80;51.80;;;;;;1803734;79;21194;-74
2023/04/15 08:59:44;;;;;;;47.70;42.67;;;37.70;52.10;;;;;;1843597;77;21161;-72
2023/04/15 09:02:16;;;;;;;46.88;42.30;;;37.70;52.10;;;;;;1848099;77;21133;-73
2023/04/15 09:04:47;;;;;;;47.75;43.25;;;37.60;52.00;;;;;;1841507;76;21180;-74
2023/04/15 09:07:18;;;;;;;48.45;43.38;;;37.60;52.40;;;;;;1831274;77;21118;-74
2023/04/15 09:09:50;;;;;;;50.40;45.15;;;37.50;53.00;;;;;;1845914;77;21100;-75
2023/04/15 09:12:21;;;;;;;50.48;45.28;;;37.50;53.10;;;;;;1846398;77;21105;-73
2023/04/15 09:14:52;;;;;;;51.05;45.85;;;37.40;53.60;;;;;;1840843;77;21482;-74
2023/04/15 09:17:25;;;;;;;52.00;46.37;;;37.40;53.90;;;;;;1850089;77;21093;-72
2023/04/15 09:20:15;;;;;;;51.58;46.20;;;37.40;54.30;;;;;;1845760;76;21192;-84
2023/04/15 09:22:50;;;;;;;51.70;46.30;;;37.40;54.60;;;;;;1849824;77;21154;-81
2023/04/15 09:25:29;;;;;;;51.50;46.33;;;37.40;54.70;;;;;;1862248;76;21122;-83
2023/04/15 09:28:03;;;;;;;50.35;45.00;;;37.30;54.90;;;;;;1849020;76;21184;-82
2023/04/15 09:30:34;;;;;;;50.55;45.40;;;37.30;55.00;;;;;;1845493;77;21180;-83
2023/04/15 09:33:07;;;;;;;49.98;44.75;;;37.20;54.70;;;;;;1833814;77;21144;-82
2023/04/15 09:35:38;;;;;;;51.23;43.45;;;37.30;54.80;;;;;;1842169;77;21191;-83
2023/04/15 09:38:10;;;;;;;48.95;43.23;;;37.20;54.50;;;;;;1842042;77;21791;-84
2023/04/15 09:40:42;;;;;;;47.08;42.30;;;37.20;54.10;;;;;;1837109;77;21106;-83
2023/04/15 09:43:15;;;;;;;48.60;43.52;;;37.10;54.20;;;;;;1840680;77;21121;-83
2023/04/15 09:45:51;;;;;;;47.95;42.88;;;37.20;54.40;;;;;;1830606;77;21185;-82
2023/04/15 09:48:30;;;;;;;49.05;44.15;;;37.10;54.40;;;;;;1834935;77;21128;-85
2023/04/15 09:51:00;;;;;;;52.23;47.05;;;37.10;54.50;;;;;;1840169;77;21100;-85
2023/04/15 09:53:34;;;;;;;49.35;43.70;;;37.00;54.70;;;;;;1847561;77;21136;-85
2023/04/15 09:56:07;;;;;;;48.68;43.63;;;37.00;54.70;;;;;;1826475;77;21600;-83
2023/04/15 09:58:40;;;;;;;49.65;44.60;;;37.00;55.00;;;;;;1839170;77;21758;-83
2023/04/15 10:01:11;;;;;;;52.45;45.33;;;37.00;54.80;;;;;;1830539;77;21159;-83
2023/04/15 10:03:44;;;;;;;49.80;44.27;;;37.00;54.80;;;;;;1842661;77;21078;-83
2023/04/15 10:06:15;;;;;;;51.95;46.42;;;37.00;54.50;;;;;;1828280;77;21139;-82
2023/04/15 10:08:47;;;;;;;49.65;44.30;;;37.00;54.30;;;;;;1840978;77;21185;-85
2023/04/15 10:11:20;;;;;;;49.08;43.48;;;37.00;54.40;;;;;;1814374;77;21141;-82
2023/04/15 10:13:53;;;;;;;51.60;46.33;;;37.00;54.40;;;;;;1837466;77;21141;-83
2023/04/15 10:16:31;;;;;;;49.33;44.15;;;36.90;54.20;;;;;;1842148;77;21660;-83
2023/04/15 10:19:03;;;;;;;48.40;43.45;;;36.90;54.20;;;;;;1841002;77;21168;-83
2023/04/15 10:21:35;;;;;;;51.55;44.10;;;36.90;54.20;;;;;;1848903;77;21062;-83
2023/04/15 10:24:07;;;;;;;49.35;44.27;;;36.90;54.50;;;;;;1844265;77;21097;-82
2023/04/15 10:26:38;;;;;;;51.15;45.75;;;36.90;54.50;;;;;;1847216;76;21290;-83
2023/04/15 10:29:10;;;;;;;49.77;44.60;;;36.80;54.50;;;;;;1846827;77;21620;-83
2023/04/15 10:31:42;;;;;;;50.65;45.12;;;36.80;54.70;;;;;;1849979;77;21113;-84
2023/04/15 10:34:14;;;;;;;52.20;46.68;;;36.80;54.90;;;;;;1850446;77;21153;-85
2023/04/15 10:36:46;;;;;;;52.60;47.23;;;36.80;55.00;;;;;;1850167;77;21164;-84
2023/04/15 10:39:38;;;;;;;53.02;47.38;;;36.80;55.00;;;;;;1849496;77;21583;-83
2023/04/15 10:42:14;;;;;;;58.83;50.55;;;36.80;55.20;;;;;;1832412;77;21062;-83
2023/04/15 10:44:53;;;;;;;58.75;52.48;;;36.80;55.20;;;;;;1845068;77;21206;-84
2023/04/15 10:47:24;;;;;;;61.58;54.30;;;36.80;54.70;;;;;;1850406;77;21702;-83
2023/04/15 10:49:59;;;;;;;60.35;53.98;;;36.80;54.60;;;;;;1854361;76;21141;-83
2023/04/15 10:52:31;;;;;;;57.07;51.13;;;36.70;54.80;;;;;;1848001;76;21233;-83
2023/04/15 10:55:14;;;;;;;56.83;50.83;;;36.70;55.00;;;;;;1843993;77;21151;-82
2023/04/15 10:57:45;;;;;;;57.27;50.90;;;36.70;54.80;;;;;;1838524;77;21107;-83
2023/04/15 11:00:17;;;;;;;64.95;57.25;;;36.70;55.00;;;;;;1809678;79;21217;-82
2023/04/15 11:02:57;;;;;;;67.55;58.75;;;36.70;55.00;;;;;;1775538;80;21131;-85
2023/04/15 11:05:54;;;;;;;74.92;65.10;;;36.60;54.90;;;;;;1797274;79;21173;-84
2023/04/15 11:08:43;;;;;;;73.30;65.20;;;36.50;55.60;;;;;;1849978;76;21900;-83
2023/04/15 11:11:14;;;;;;;57.17;51.28;;;36.50;55.40;;;;;;1797576;79;21202;-84
2023/04/15 11:13:55;;;;;;;57.73;51.23;;;36.50;56.70;;;;;;1834363;77;21132;-83
2023/04/15 11:16:26;;;;;;;59.85;51.55;;;36.50;57.20;;;;;;1828672;78;21153;-84
2023/04/15 11:18:57;;;;;;;59.63;52.30;;;36.50;57.00;;;;;;1806598;78;21487;-84
2023/04/15 11:21:29;;;;;;;57.05;50.98;;;36.40;57.00;;;;;;1824273;78;21075;-85
2023/04/15 11:24:00;;;;;;;59.58;52.05;;;36.40;56.50;;;;;;1807223;79;21174;-86
2023/04/15 11:26:32;;;;;;;65.00;51.98;;;36.40;57.00;;;;;;1809972;78;21181;-82
2023/04/15 11:29:04;;;;;;;62.95;51.73;;;36.30;57.40;;;;;;1805208;78;21170;-83
2023/04/15 11:31:35;;;;;;;62.85;53.92;;;36.30;57.20;;;;;;1783296;79;21309;-84
2023/04/15 11:34:06;;;;;;;57.95;51.60;;;36.30;57.70;;;;;;1767553;79;21244;-84
2023/04/15 11:36:38;;;;;;;61.68;49.23;;;36.30;57.50;;;;;;1807209;79;21205;-84
2023/04/15 11:39:09;;;;;;;55.70;49.75;;;36.20;57.30;;;;;;1777217;80;21977;-84
2023/04/15 11:41:42;;;;;;;56.60;50.50;;;36.20;57.20;;;;;;1810967;78;21094;-84
2023/04/15 11:44:20;;;;;;;60.67;51.70;;;36.10;57.60;;;;;;1813872;79;21548;-84
2023/04/15 11:46:51;;;;;;;57.17;51.08;;;36.10;57.60;;;;;;1845835;76;21131;-83
2023/04/15 11:49:30;;;;;;;58.68;50.43;;;36.10;57.50;;;;;;1849728;76;21670;-84
2023/04/15 11:52:01;;;;;;;61.05;50.60;;;36.10;57.10;;;;;;1833507;77;21207;-84
2023/04/15 11:54:32;;;;;;;84.70;57.60;;;36.10;57.40;;;;;;1810585;78;21722;-83
2023/04/15 11:57:04;;;;;;;70.70;55.43;;;36.10;57.60;;;;;;1815096;78;21126;-82
2023/04/15 11:59:44;;;;;;;57.98;50.85;;;36.10;57.70;;;;;;1853342;76;21287;-85
2023/04/15 12:02:17;;;;;;;58.80;50.80;;;36.10;57.50;;;;;;1850259;76;21242;-85
2023/04/15 12:04:48;;;;;;;62.62;55.38;;;36.00;57.80;;;;;;1854024;76;21079;-85
2023/04/15 12:07:20;;;;;;;61.63;52.15;;;36.00;58.70;;;;;;1846370;76;21230;-84
2023/04/15 12:09:58;;;;;;;61.90;53.08;;;36.00;58.50;;;;;;1851086;77;21129;-82
2023/04/15 12:12:29;;;;;;;60.52;53.42;;;35.90;58.40;;;;;;1850066;76;21101;-85
2023/04/15 12:15:01;;;;;;;58.42;51.90;;;35.90;59.60;;;;;;1874923;76;21606;-86
2023/04/15 12:17:32;;;;;;;62.53;53.58;;;35.90;58.50;;;;;;1861946;76;21134;-86
2023/04/15 12:20:04;;;;;;;71.10;56.02;;;35.90;58.30;;;;;;1864436;76;21125;-85
2023/04/15 12:22:38;;;;;;;65.15;55.05;;;35.90;58.60;;;;;;1881950;75;21129;-85
2023/04/15 12:25:09;;;;;;;64.37;55.73;;;35.90;58.70;;;;;;1857103;76;21125;-85
2023/04/15 12:27:40;;;;;;;64.00;53.00;;;35.80;58.80;;;;;;1850611;77;21429;-85
2023/04/15 12:30:11;;;;;;;60.33;53.00;;;35.80;59.00;;;;;;1843137;77;21600;-86
2023/04/15 12:32:43;;;;;;;63.10;55.52;;;35.80;58.70;;;;;;1845339;76;21152;-86
2023/04/15 12:35:14;;;;;;;63.73;56.58;;;35.80;59.00;;;;;;1850540;77;21133;-85
2023/04/15 12:37:45;;;;;;;68.70;58.38;;;35.80;59.20;;;;;;1876027;76;21556;-86
2023/04/15 12:40:16;;;;;;;64.97;57.30;;;35.70;59.40;;;;;;1882412;76;21086;-85
2023/04/15 12:42:48;;;;;;;61.05;54.40;;;35.70;59.60;;;;;;1881713;76;21223;-85
2023/04/15 12:45:20;;;;;;;63.60;55.58;;;35.70;59.90;;;;;;1850634;77;21089;-85
2023/04/15 12:47:51;;;;;;;62.15;55.38;;;35.60;60.90;;;;;;1850630;77;21671;-85
2023/04/15 12:50:22;;;;;;;64.55;56.05;;;35.60;61.10;;;;;;1850414;77;21082;-86
2023/04/15 12:52:53;;;;;;;68.92;56.37;;;35.60;61.20;;;;;;1859936;76;21706;-85